Time;durP1;ratioP1;P1;durP2;ratioP2;P2;SDS_P1;SDS_P2;PMS_P1;PMS_P2;Temp;Humidity;BMP_temperature;BMP_pressure;BME280_temperature;BME280_humidity;BME280_pressure;Samples;Min_cycle;Max_cycle;Signal;HPM_P1;HPM_P2
2023/08/10 00:00:46;;;;;;;2.00;1.42;;;;;;;14.15;100.00;96249.25;5013253;28;24436;-72
2023/08/10 00:03:13;;;;;;;3.25;1.42;;;;;;;14.01;100.00;96260.63;5014159;28;24448;-72
2023/08/10 00:05:40;;;;;;;2.28;1.55;;;;;;;13.95;100.00;96262.84;5026378;28;24531;-72
2023/08/10 00:08:06;;;;;;;3.38;1.30;;;;;;;14.00;100.00;96253.75;5017142;28;24429;-72
2023/08/10 00:10:34;;;;;;;2.17;1.50;;;;;;;14.16;100.00;96247.50;5013024;28;25097;-72
2023/08/10 00:13:00;;;;;;;2.73;1.70;;;;;;;14.34;100.00;96250.59;5017837;28;24619;-72
2023/08/10 00:15:27;;;;;;;2.17;1.50;;;;;;;14.40;100.00;96250.16;5032600;28;24439;-72
2023/08/10 00:17:53;;;;;;;1.30;1.10;;;;;;;14.44;100.00;96251.63;5021061;28;24456;-72
2023/08/10 00:20:20;;;;;;;2.20;1.25;;;;;;;14.45;100.00;96253.28;5027608;28;24439;-72
2023/08/10 00:22:46;;;;;;;2.42;1.27;;;;;;;14.34;100.00;96253.19;5013322;28;24443;-72
2023/08/10 00:25:13;;;;;;;1.88;1.40;;;;;;;14.52;100.00;96251.94;5013196;28;24512;-72
2023/08/10 00:27:41;;;;;;;2.75;1.30;;;;;;;14.44;100.00;96254.22;5022338;28;24432;-72
2023/08/10 00:30:08;;;;;;;1.70;1.33;;;;;;;14.34;100.00;96245.38;5022766;28;24979;-72
2023/08/10 00:32:35;;;;;;;1.90;1.35;;;;;;;14.27;100.00;96251.00;5025225;28;24442;-72
2023/08/10 00:35:02;;;;;;;1.73;1.50;;;;;;;14.06;100.00;96256.91;5028581;28;24452;-72
2023/08/10 00:37:29;;;;;;;2.40;1.30;;;;;;;13.98;100.00;96253.06;5019993;28;25093;-72
2023/08/10 00:39:55;;;;;;;2.78;1.60;;;;;;;14.02;100.00;96253.66;5032218;28;24439;-72
2023/08/10 00:42:22;;;;;;;1.67;1.20;;;;;;;13.98;100.00;96254.81;5017386;28;24437;-72
2023/08/10 00:44:49;;;;;;;2.60;1.35;;;;;;;13.96;100.00;96257.50;5030408;28;24463;-72
2023/08/10 00:47:16;;;;;;;2.17;1.38;;;;;;;14.03;100.00;96260.53;5026691;28;24478;-72
2023/08/10 00:49:43;;;;;;;1.85;1.48;;;;;;;14.00;100.00;96258.13;5020414;28;24448;-72
2023/08/10 00:52:09;;;;;;;2.33;1.60;;;;;;;14.02;100.00;96261.47;5019403;28;24998;-72
2023/08/10 00:54:36;;;;;;;1.60;1.35;;;;;;;14.00;100.00;96264.19;5028461;28;25002;-72
2023/08/10 00:57:02;;;;;;;2.28;1.38;;;;;;;14.00;100.00;96258.13;5028431;28;24436;-72
2023/08/10 00:59:31;;;;;;;1.70;1.05;;;;;;;14.03;100.00;96258.75;5018343;28;24443;-72
2023/08/10 01:01:58;;;;;;;2.83;1.10;;;;;;;13.98;100.00;96257.44;5021132;28;24503;-72
2023/08/10 01:04:25;;;;;;;1.50;1.08;;;;;;;13.99;100.00;96253.88;5014560;28;24437;-74
2023/08/10 01:07:01;;;;;;;1.70;1.02;;;;;;;13.93;100.00;96255.13;5029421;28;24986;-74
2023/08/10 01:09:35;;;;;;;2.17;1.50;;;;;;;14.16;100.00;96263.13;5012491;28;24800;-72
2023/08/10 01:12:08;;;;;;;2.22;1.33;;;;;;;13.98;100.00;96266.06;5022407;28;24434;-74
2023/08/10 01:14:41;;;;;;;2.20;1.42;;;;;;;13.84;100.00;96260.97;5017039;28;24447;-74
2023/08/10 01:17:14;;;;;;;4.30;1.35;;;;;;;13.79;100.00;96263.88;5015668;28;24843;-74
2023/08/10 01:19:44;;;;;;;3.10;1.25;;;;;;;13.66;100.00;96270.84;5024425;28;24443;-72
2023/08/10 01:22:21;;;;;;;1.95;1.38;;;;;;;13.62;100.00;96258.16;5022626;28;24443;-72
2023/08/10 01:24:58;;;;;;;1.00;0.90;;;;;;;13.64;100.00;96266.66;5027134;28;24447;-72
2023/08/10 01:27:25;;;;;;;1.63;1.13;;;;;;;13.61;100.00;96270.34;4996966;28;24518;-72
2023/08/10 01:29:52;;;;;;;1.80;1.05;;;;;;;13.59;100.00;96264.38;5020088;28;25086;-72
2023/08/10 01:32:19;;;;;;;1.70;1.20;;;;;;;13.59;100.00;96264.38;5019694;28;24443;-74
2023/08/10 01:34:45;;;;;;;2.58;1.15;;;;;;;13.59;100.00;96266.16;5012011;28;24447;-72
2023/08/10 01:37:11;;;;;;;1.42;1.25;;;;;;;13.55;100.00;96274.16;5013934;28;24440;-72
2023/08/10 01:39:38;;;;;;;2.55;1.50;;;;;;;13.55;100.00;96279.38;5021309;28;24441;-72
2023/08/10 01:42:06;;;;;;;1.55;1.23;;;;;;;13.58;100.00;96270.53;5023336;28;24439;-72
2023/08/10 01:44:33;;;;;;;2.25;1.58;;;;;;;13.62;100.00;96268.56;5014789;28;24998;-73
2023/08/10 01:47:04;;;;;;;1.50;1.40;;;;;;;13.68;100.00;96266.38;4999190;28;24443;-72
2023/08/10 01:49:34;;;;;;;2.70;1.70;;;;;;;13.74;100.00;96276.38;5030715;28;24435;-72
2023/08/10 01:52:02;;;;;;;1.73;1.42;;;;;;;13.77;100.00;96268.34;5018293;28;24436;-73
2023/08/10 01:54:29;;;;;;;1.52;1.27;;;;;;;13.71;100.00;96268.75;5027831;28;24443;-73
2023/08/10 01:56:56;;;;;;;4.97;1.40;;;;;;;13.68;100.00;96270.72;5015051;28;24439;-72
2023/08/10 01:59:24;;;;;;;2.30;1.50;;;;;;;13.65;100.00;96274.38;5023198;28;24456;-72
2023/08/10 02:01:50;;;;;;;1.50;1.30;;;;;;;13.64;100.00;96280.50;5016999;28;24838;-72
2023/08/10 02:04:17;;;;;;;11.68;1.80;;;;;;;13.55;100.00;96273.34;5010976;28;24436;-72
2023/08/10 02:06:43;;;;;;;2.00;1.47;;;;;;;13.50;100.00;96273.66;5026675;28;24512;-72
2023/08/10 02:09:10;;;;;;;1.77;1.40;;;;;;;13.50;100.00;96275.41;5010967;28;24443;-72
2023/08/10 02:11:36;;;;;;;2.38;1.50;;;;;;;13.43;100.00;96272.38;5016018;28;24443;-72
2023/08/10 02:14:02;;;;;;;3.13;1.40;;;;;;;13.39;100.00;96278.72;5023071;28;24438;-73
2023/08/10 02:16:30;;;;;;;3.95;1.70;;;;;;;13.41;100.00;96276.00;5030221;28;24439;-73
2023/08/10 02:18:57;;;;;;;3.80;1.60;;;;;;;13.40;100.00;96277.78;5010973;28;24515;-72
2023/08/10 02:21:23;;;;;;;4.28;1.70;;;;;;;13.36;100.00;96278.09;5010356;28;24448;-73
2023/08/10 02:23:50;;;;;;;3.35;1.48;;;;;;;13.38;100.00;96271.00;5021167;28;24896;-72
2023/08/10 02:26:17;;;;;;;2.70;1.80;;;;;;;13.45;100.00;96278.31;5030198;28;24443;-73
2023/08/10 02:28:43;;;;;;;1.50;1.13;;;;;;;13.39;100.00;96268.31;5012903;28;24440;-72
2023/08/10 02:31:10;;;;;;;1.67;1.20;;;;;;;13.28;100.00;96268.19;5010676;28;24448;-72
2023/08/10 02:33:38;;;;;;;1.90;1.70;;;;;;;13.12;100.00;96270.91;5017815;28;24442;-73
2023/08/10 02:36:05;;;;;;;1.37;1.27;;;;;;;13.19;100.00;96273.94;5029979;28;24795;-73
2023/08/10 02:38:32;;;;;;;1.90;1.08;;;;;;;13.20;100.00;96268.66;5014569;28;24492;-72
2023/08/10 02:40:58;;;;;;;1.33;1.00;;;;;;;13.05;100.00;96261.81;5012723;28;24447;-72
2023/08/10 02:43:24;;;;;;;1.90;0.80;;;;;;;13.02;100.00;96260.28;5029740;28;24494;-72
2023/08/10 02:45:51;;;;;;;1.35;0.98;;;;;;;12.82;100.00;96258.94;5029817;28;24804;-72
2023/08/10 02:48:18;;;;;;;3.70;1.10;;;;;;;12.83;100.00;96265.00;5016532;28;24435;-72
2023/08/10 02:50:45;;;;;;;1.30;1.20;;;;;;;12.88;100.00;96262.09;5010339;28;24436;-73
2023/08/10 02:53:12;;;;;;;1.50;1.20;;;;;;;12.94;100.00;96252.16;5029097;28;24887;-72
2023/08/10 02:55:38;;;;;;;1.67;1.40;;;;;;;13.00;100.00;96258.69;5029713;28;24894;-72
2023/08/10 02:58:05;;;;;;;2.30;1.40;;;;;;;13.00;100.00;96261.31;5018695;28;24824;-73
2023/08/10 03:00:31;;;;;;;1.17;1.00;;;;;;;12.96;100.00;96268.47;5018579;28;24986;-72
2023/08/10 03:02:57;;;;;;;0.95;0.80;;;;;;;12.84;100.00;96266.66;5008460;28;24805;-73
2023/08/10 03:05:24;;;;;;;1.02;0.85;;;;;;;12.76;100.00;96266.31;5008470;28;24453;-73
2023/08/10 03:07:52;;;;;;;2.80;1.02;;;;;;;12.78;100.00;96267.88;5006395;28;24444;-72
2023/08/10 03:10:19;;;;;;;2.50;1.20;;;;;;;12.64;100.00;96267.91;5016380;28;24482;-71
2023/08/10 03:12:45;;;;;;;1.10;1.00;;;;;;;12.50;100.00;96267.97;5020246;28;24440;-71
2023/08/10 03:15:11;;;;;;;1.45;1.08;;;;;;;12.46;100.00;96263.88;5001658;28;24801;-71
2023/08/10 03:17:39;;;;;;;2.47;1.30;;;;;;;12.50;100.00;96261.00;5018510;28;24462;-71
2023/08/10 03:20:12;;;;;;;2.70;1.20;;;;;;;12.39;100.00;96260.84;5028893;28;24588;-71
2023/08/10 03:22:39;;;;;;;2.22;1.20;;;;;;;12.42;100.00;96258.06;5021357;28;24438;-72
2023/08/10 03:25:08;;;;;;;1.40;1.30;;;;;;;12.39;100.00;96257.41;5027630;28;24492;-72
2023/08/10 03:27:34;;;;;;;1.77;1.08;;;;;;;12.38;100.00;96258.31;5027639;28;24447;-72
2023/08/10 03:30:01;;;;;;;1.88;1.35;;;;;;;12.35;100.00;96265.38;5025338;28;24830;-72
2023/08/10 03:32:27;;;;;;;3.50;1.52;;;;;;;12.34;100.00;96266.28;5007077;28;24433;-72
2023/08/10 03:34:54;;;;;;;1.65;1.30;;;;;;;12.39;100.00;96265.19;5008133;28;24408;-72
2023/08/10 03:37:20;;;;;;;1.73;1.33;;;;;;;12.38;100.00;96258.31;5007960;28;24506;-72
2023/08/10 03:39:46;;;;;;;3.55;1.42;;;;;;;12.39;100.00;96260.00;5009208;28;24456;-72
2023/08/10 03:42:14;;;;;;;5.55;1.67;;;;;;;12.39;100.00;96265.19;5010091;28;24424;-72
2023/08/10 03:44:41;;;;;;;2.47;1.50;;;;;;;12.29;100.00;96264.94;5009570;28;24420;-71
2023/08/10 03:47:07;;;;;;;2.13;1.60;;;;;;;12.28;100.00;96265.88;5009932;28;24430;-71
2023/08/10 03:49:34;;;;;;;4.20;1.80;;;;;;;12.29;100.00;96268.34;5009700;28;24435;-71
2023/08/10 03:52:02;;;;;;;3.77;1.70;;;;;;;12.37;100.00;96257.47;5009775;28;24416;-71
2023/08/10 03:54:30;;;;;;;2.25;1.42;;;;;;;12.45;100.00;96264.81;5009808;28;24440;-71
2023/08/10 03:56:56;;;;;;;3.67;1.60;;;;;;;12.34;100.00;96262.88;5009545;28;24419;-71
2023/08/10 03:59:25;;;;;;;2.20;1.50;;;;;;;12.11;100.00;96267.72;5009209;28;24659;-71
2023/08/10 04:01:51;;;;;;;1.80;1.30;;;;;;;12.11;100.00;96269.47;5009510;28;24440;-71
2023/08/10 04:04:18;;;;;;;1.58;1.33;;;;;;;12.06;100.00;96266.34;5009625;28;24416;-71
2023/08/10 04:06:44;;;;;;;2.00;1.42;;;;;;;11.98;100.00;96263.38;5011940;28;24423;-71
2023/08/10 04:09:11;;;;;;;2.03;1.50;;;;;;;11.92;100.00;96267.16;5012718;28;24417;-71
2023/08/10 04:11:37;;;;;;;2.00;1.47;;;;;;;11.91;100.00;96264.66;5012408;28;24423;-71
2023/08/10 04:14:04;;;;;;;2.80;1.65;;;;;;;11.97;100.00;96261.69;5012830;28;24777;-71
2023/08/10 04:16:32;;;;;;;3.33;1.30;;;;;;;11.88;100.00;96263.09;5012035;28;24441;-71
2023/08/10 04:18:58;;;;;;;1.65;1.48;;;;;;;11.92;100.00;96274.94;5012245;28;24465;-71
2023/08/10 04:21:25;;;;;;;2.60;1.55;;;;;;;11.94;100.00;96275.69;5012620;28;24413;-71
2023/08/10 04:23:52;;;;;;;4.22;1.55;;;;;;;11.98;100.00;96279.78;5012580;28;24444;-71
2023/08/10 04:26:18;;;;;;;3.17;1.70;;;;;;;11.86;100.00;96280.50;5012621;28;24419;-71
2023/08/10 04:28:45;;;;;;;4.05;1.90;;;;;;;11.85;100.00;96276.25;5012638;28;24424;-71
2023/08/10 04:31:12;;;;;;;3.33;1.75;;;;;;;11.83;100.00;96298.84;5014923;28;24765;-72
2023/08/10 04:33:40;;;;;;;3.70;1.65;;;;;;;11.94;100.00;96291.28;5012579;28;24495;-72
2023/08/10 04:36:07;;;;;;;2.93;1.60;;;;;;;12.03;100.00;96290.72;5012637;28;24595;-72
2023/08/10 04:38:34;;;;;;;3.30;1.60;;;;;;;12.04;100.00;96292.38;5012449;28;24484;-72
2023/08/10 04:41:00;;;;;;;2.60;1.80;;;;;;;12.09;100.00;96289.53;5012513;28;24420;-72
2023/08/10 04:43:27;;;;;;;2.30;1.30;;;;;;;12.08;100.00;96287.84;5012254;28;25059;-72
2023/08/10 04:45:56;;;;;;;4.07;1.20;;;;;;;12.03;100.00;96282.09;5012516;28;24424;-72
2023/08/10 04:48:22;;;;;;;1.40;1.30;;;;;;;12.21;100.00;96288.78;5012475;28;24428;-72
2023/08/10 04:50:50;;;;;;;3.60;1.30;;;;;;;12.08;100.00;96280.03;5012550;28;24425;-72
2023/08/10 04:53:16;;;;;;;2.92;1.45;;;;;;;12.07;100.00;96278.38;5011879;28;24412;-72
2023/08/10 04:55:43;;;;;;;2.47;1.30;;;;;;;12.00;100.00;96274.50;5012353;28;24960;-71
2023/08/10 04:58:10;;;;;;;1.63;1.35;;;;;;;11.97;100.00;96288.47;5012090;28;24439;-72
2023/08/10 05:00:36;;;;;;;3.10;1.20;;;;;;;12.02;100.00;96283.84;5012211;28;24812;-72
2023/08/10 05:03:04;;;;;;;3.50;1.70;;;;;;;12.02;100.00;96283.84;5011881;28;24964;-72
2023/08/10 05:05:30;;;;;;;2.85;1.80;;;;;;;12.13;100.00;96282.38;5016900;28;24491;-72
2023/08/10 05:07:58;;;;;;;2.72;2.30;;;;;;;12.41;100.00;96281.50;5012336;28;24432;-72
2023/08/10 05:10:25;;;;;;;4.95;2.40;;;;;;;12.59;100.00;96286.41;5020188;28;24431;-72
2023/08/10 05:12:51;;;;;;;4.93;2.60;;;;;;;12.63;100.00;96279.25;5020912;28;24950;-72
2023/08/10 05:15:19;;;;;;;8.07;2.47;;;;;;;12.60;100.00;96279.44;5006626;28;24968;-72
2023/08/10 05:17:45;;;;;;;5.40;2.70;;;;;;;12.60;100.00;96285.44;5012914;28;24458;-72
2023/08/10 05:20:12;;;;;;;3.20;2.13;;;;;;;12.63;100.00;96284.44;5012119;28;24589;-72
2023/08/10 05:22:39;;;;;;;3.42;2.15;;;;;;;12.75;100.00;96281.06;5011655;28;25045;-72
2023/08/10 05:25:08;;;;;;;2.10;1.80;;;;;;;12.82;100.00;96281.50;5012198;28;24430;-72
2023/08/10 05:27:35;;;;;;;2.53;1.85;;;;;;;12.97;100.00;96284.91;5019378;28;24435;-72
2023/08/10 05:30:01;;;;;;;2.67;1.88;;;;;;;13.01;100.00;96284.59;5020679;28;24998;-72
2023/08/10 05:32:28;;;;;;;2.43;1.90;;;;;;;13.12;100.00;96288.28;5031084;28;25060;-72
2023/08/10 05:34:54;;;;;;;3.40;1.98;;;;;;;13.14;100.00;96296.81;5031351;28;24423;-72
2023/08/10 05:37:21;;;;;;;1.70;1.60;;;;;;;13.27;100.00;96295.97;5031698;28;24420;-72
2023/08/10 05:39:47;;;;;;;3.95;1.92;;;;;;;13.44;100.00;96299.22;5031260;28;24459;-72
2023/08/10 05:42:15;;;;;;;2.37;2.00;;;;;;;13.62;100.00;96300.63;5031233;28;24432;-72
2023/08/10 05:44:42;;;;;;;5.32;2.22;;;;;;;13.72;100.00;96306.88;5031266;28;24457;-71
2023/08/10 05:47:09;;;;;;;2.65;2.22;;;;;;;13.93;100.00;96308.97;5031331;28;24423;-71
2023/08/10 05:49:35;;;;;;;2.42;2.22;;;;;;;13.94;100.00;96308.03;5030762;28;24427;-71
2023/08/10 05:52:02;;;;;;;2.60;2.20;;;;;;;14.02;100.00;96305.75;5021317;28;24444;-71
2023/08/10 05:54:29;;;;;;;3.65;2.58;;;;;;;14.11;100.00;96307.72;4991791;28;24532;-71
2023/08/10 05:56:55;;;;;;;3.03;2.30;;;;;;;14.20;100.00;96319.28;4991770;28;24421;-71
2023/08/10 05:59:23;;;;;;;2.35;2.15;;;;;;;14.23;100.00;96322.50;4991803;28;24487;-71
2023/08/10 06:01:50;;;;;;;2.92;2.40;;;;;;;14.22;100.00;96322.63;4991661;28;24413;-72
2023/08/10 06:04:16;;;;;;;4.55;2.63;;;;;;;14.23;100.00;96317.28;4991524;28;24460;-71
2023/08/10 06:06:42;;;;;;;3.25;2.25;;;;;;;14.24;100.00;96328.56;4998402;28;24431;-71
2023/08/10 06:09:11;;;;;;;3.58;2.15;;;;;;;14.32;100.00;96321.06;5031077;28;24414;-71
2023/08/10 06:11:37;;;;;;;3.53;2.08;;;;;;;14.41;100.00;96316.97;5030414;28;24974;-71
2023/08/10 06:14:04;;;;;;;2.55;2.30;;;;;;;14.51;100.00;96310.22;5031020;28;24451;-71
2023/08/10 06:16:32;;;;;;;2.80;2.30;;;;;;;14.54;100.00;96302.19;5030847;28;24416;-72
2023/08/10 06:18:58;;;;;;;4.63;2.58;;;;;;;14.49;100.00;96310.31;5030427;28;24547;-71
2023/08/10 06:21:25;;;;;;;5.38;2.53;;;;;;;14.49;100.00;96307.69;5030808;28;24426;-71
2023/08/10 06:23:51;;;;;;;4.40;2.67;;;;;;;14.33;100.00;96309.69;5030456;28;24412;-71
2023/08/10 06:26:18;;;;;;;4.82;2.42;;;;;;;14.39;100.00;96321.47;5030556;28;24803;-72
2023/08/10 06:28:44;;;;;;;3.25;2.38;;;;;;;14.44;100.00;96329.78;5029561;28;24998;-71
2023/08/10 06:31:11;;;;;;;3.05;2.60;;;;;;;14.53;100.00;96329.19;5030466;28;24439;-71
2023/08/10 06:33:39;;;;;;;4.40;2.50;;;;;;;14.70;100.00;96325.41;5030073;28;24435;-71
2023/08/10 06:36:06;;;;;;;6.43;2.95;;;;;;;14.69;100.00;96334.16;5030459;28;24428;-71
2023/08/10 06:38:34;;;;;;;3.10;2.60;;;;;;;14.62;100.00;96333.75;5029968;28;24915;-71
2023/08/10 06:41:01;;;;;;;3.87;2.67;;;;;;;14.68;100.00;96337.69;5030048;28;24624;-71
2023/08/10 06:43:27;;;;;;;2.95;2.15;;;;;;;14.85;100.00;96344.34;5030014;28;24416;-71
2023/08/10 06:45:54;;;;;;;3.00;2.38;;;;;;;14.86;100.00;96346.84;5029776;28;24416;-71
2023/08/10 06:48:20;;;;;;;10.52;2.22;;;;;;;14.94;100.00;96346.28;5030138;28;24482;-72
2023/08/10 06:50:48;;;;;;;2.95;2.60;;;;;;;14.85;100.00;96342.56;5030488;28;24466;-71
2023/08/10 06:53:15;;;;;;;4.57;2.13;;;;;;;14.88;100.00;96337.16;5030224;28;24420;-72
2023/08/10 06:55:42;;;;;;;3.22;2.42;;;;;;;14.97;100.00;96340.84;5030253;28;24422;-71
2023/08/10 06:58:08;;;;;;;2.40;2.15;;;;;;;14.97;100.00;96340.84;5030037;28;24422;-71
2023/08/10 07:00:36;;;;;;;2.40;1.98;;;;;;;15.06;100.00;96345.44;5030084;28;24502;-71
2023/08/10 07:03:03;;;;;;;3.17;2.30;;;;;;;15.23;100.00;96345.03;5030009;28;24970;-71
2023/08/10 07:05:30;;;;;;;3.45;2.33;;;;;;;15.50;100.00;96341.41;5030431;28;24435;-71
2023/08/10 07:07:58;;;;;;;5.57;2.80;;;;;;;15.83;100.00;96342.47;5030490;28;24510;-72
2023/08/10 07:10:24;;;;;;;2.60;2.33;;;;;;;15.96;100.00;96343.22;5030122;28;24412;-73
2023/08/10 07:12:51;;;;;;;4.75;2.28;;;;;;;16.16;100.00;96349.53;5029911;28;24495;-71
2023/08/10 07:15:18;;;;;;;3.22;2.38;;;;;;;16.20;100.00;96351.84;5030138;28;24436;-73
2023/08/10 07:17:44;;;;;;;2.45;2.20;;;;;;;16.29;100.00;96345.06;5030172;28;25272;-71
2023/08/10 07:20:12;;;;;;;2.78;2.33;;;;;;;16.55;100.00;96352.69;5030285;28;24544;-72
2023/08/10 07:22:45;;;;;;;3.63;2.20;;;;;;;16.85;100.00;96358.16;5029920;28;24422;-71
2023/08/10 07:25:13;;;;;;;6.00;2.42;;;;;;;17.09;100.00;96350.16;5030385;28;24426;-72
2023/08/10 07:27:39;;;;;;;2.67;2.47;;;;;;;17.12;100.00;96356.94;5029971;28;24515;-72
2023/08/10 07:30:07;;;;;;;2.33;2.03;;;;;;;17.44;100.00;96353.53;5029989;28;24420;-71
2023/08/10 07:32:33;;;;;;;2.38;2.00;;;;;;;17.72;100.00;96354.72;5029735;28;24955;-72
2023/08/10 07:35:00;;;;;;;3.05;2.05;;;;;;;18.02;100.00;96352.22;5030021;28;24411;-72
2023/08/10 07:37:26;;;;;;;4.10;2.30;;;;;;;18.44;100.00;96354.81;5030083;28;24423;-72
2023/08/10 07:39:53;;;;;;;2.97;2.35;;;;;;;18.70;100.00;96351.75;5031011;28;24454;-72
2023/08/10 07:42:21;;;;;;;2.42;2.20;;;;;;;19.01;100.00;96349.94;5033733;28;24470;-72
2023/08/10 07:44:48;;;;;;;3.50;2.30;;;;;;;19.17;100.00;96352.91;5033840;28;24442;-72
2023/08/10 07:47:14;;;;;;;2.75;1.92;;;;;;;19.19;100.00;96355.38;5033708;28;24787;-72
2023/08/10 07:49:42;;;;;;;3.85;2.25;;;;;;;19.33;100.00;96362.88;5033317;28;24959;-72
2023/08/10 07:52:09;;;;;;;4.68;2.25;;;;;;;19.52;100.00;96365.53;5033393;28;24447;-72
2023/08/10 07:54:35;;;;;;;3.30;2.10;;;;;;;19.42;100.00;96364.66;5033289;28;24780;-73
2023/08/10 07:57:02;;;;;;;2.30;2.10;;;;;;;19.84;100.00;96369.72;5033831;28;24408;-72
2023/08/10 07:59:30;;;;;;;2.67;2.10;;;;;;;19.67;100.00;96370.41;5032771;28;24456;-72
2023/08/10 08:01:56;;;;;;;4.63;2.30;;;;;;;19.62;100.00;96364.72;5033150;28;24427;-72
2023/08/10 08:04:23;;;;;;;3.27;1.93;;;;;;;19.47;100.00;96359.84;5029703;28;24432;-72
2023/08/10 08:06:49;;;;;;;4.03;1.95;;;;;;;19.54;100.00;96363.59;5013516;28;24428;-72
2023/08/10 08:09:16;;;;;;;2.28;1.90;;;;;;;20.00;100.00;96363.91;5013023;28;24971;-72
2023/08/10 08:11:42;;;;;;;2.77;1.80;;;;;;;19.91;100.00;96365.56;5018727;28;24431;-71
2023/08/10 08:14:09;;;;;;;2.42;1.83;;;;;;;20.16;100.00;96368.56;5033460;28;24440;-72
2023/08/10 08:16:37;;;;;;;2.65;1.73;;;;;;;20.05;100.00;96367.75;5033297;28;24423;-72
2023/08/10 08:19:03;;;;;;;1.75;1.50;;;;;;;20.29;100.00;96362.06;5032979;28;24772;-72
2023/08/10 08:21:31;;;;;;;4.72;1.80;;;;;;;20.78;100.00;96361.94;5033141;28;24444;-72
2023/08/10 08:23:58;;;;;;;2.88;1.63;;;;;;;21.03;100.00;96361.25;5032275;28;24415;-72
2023/08/10 08:26:26;;;;;;;3.53;2.00;;;;;;;21.27;100.00;96351.97;5033270;28;24408;-72
2023/08/10 08:28:53;;;;;;;3.00;1.77;;;;;;;21.62;100.00;96353.03;5032906;28;24435;-72
2023/08/10 08:31:19;;;;;;;2.50;2.03;;;;;;;21.61;100.00;96352.16;5032906;28;24412;-72
2023/08/10 08:33:47;;;;;;;4.35;1.45;;;;;;;21.25;100.00;96352.13;5032645;28;24416;-72
2023/08/10 08:36:13;;;;;;;2.30;1.83;;;;;;;21.82;100.00;96357.16;5013695;28;24972;-72
2023/08/10 08:38:40;;;;;;;2.70;1.88;;;;;;;21.91;100.00;96358.88;5016861;28;24435;-72
2023/08/10 08:41:08;;;;;;;1.85;1.45;;;;;;;22.29;100.00;96348.97;5022424;28;24455;-72
2023/08/10 08:43:36;;;;;;;3.53;1.95;;;;;;;22.48;100.00;96347.13;5019814;28;24421;-72
2023/08/10 08:46:04;;;;;;;1.60;1.50;;;;;;;21.78;97.79;96345.25;5021221;28;24428;-72
2023/08/10 08:48:31;;;;;;;2.40;1.83;;;;;;;21.32;99.79;96349.72;5022303;28;24435;-72
2023/08/10 08:50:59;;;;;;;2.53;1.85;;;;;;;21.38;100.00;96345.69;5022185;28;24427;-72
2023/08/10 08:53:26;;;;;;;3.78;2.00;;;;;;;21.85;100.00;96338.41;5018688;28;24979;-72
2023/08/10 08:55:52;;;;;;;3.72;1.80;;;;;;;21.90;100.00;96341.38;5022392;28;24424;-72
2023/08/10 08:58:19;;;;;;;5.97;1.70;;;;;;;21.47;100.00;96345.63;5023168;28;24428;-72
2023/08/10 09:00:48;;;;;;;1.80;1.53;;;;;;;21.88;100.00;96342.53;5018518;28;25003;-72
2023/08/10 09:03:15;;;;;;;2.13;1.77;;;;;;;22.46;100.00;96339.34;5021280;28;24807;-72
2023/08/10 09:05:41;;;;;;;2.60;1.90;;;;;;;22.82;100.00;96339.19;5023118;28;24432;-72
2023/08/10 09:08:09;;;;;;;2.53;2.08;;;;;;;22.66;100.00;96347.88;5021371;28;24451;-72
2023/08/10 09:10:36;;;;;;;1.70;1.60;;;;;;;22.84;99.64;96343.34;5021386;28;24435;-72
2023/08/10 09:13:11;;;;;;;3.08;1.98;;;;;;;23.13;86.60;96337.69;5022627;28;24959;-72
2023/08/10 09:15:37;;;;;;;2.22;1.63;;;;;;;23.09;89.71;96338.19;5022472;28;24444;-72
2023/08/10 09:18:05;;;;;;;2.30;1.83;;;;;;;23.12;85.40;96329.94;5016107;28;24444;-73
2023/08/10 09:20:32;;;;;;;2.90;1.90;;;;;;;22.69;80.90;96332.56;5019965;28;24510;-72
2023/08/10 09:22:59;;;;;;;1.73;1.58;;;;;;;22.59;81.13;96325.72;5019873;28;24431;-73
2023/08/10 09:25:27;;;;;;;1.97;1.77;;;;;;;22.41;84.88;96326.63;5018259;28;24424;-73
2023/08/10 09:27:54;;;;;;;2.47;1.60;;;;;;;22.37;82.27;96320.00;5021412;28;24447;-72
2023/08/10 09:30:21;;;;;;;3.83;1.95;;;;;;;22.49;79.02;96328.47;5022073;28;24436;-72
2023/08/10 09:32:47;;;;;;;2.70;1.70;;;;;;;22.98;87.96;96328.72;5020835;28;24436;-72
2023/08/10 09:35:15;;;;;;;1.92;1.73;;;;;;;23.01;77.22;96314.38;5021405;28;24423;-72
2023/08/10 09:37:43;;;;;;;2.00;1.70;;;;;;;23.33;75.23;96322.41;5022349;28;24428;-72
2023/08/10 09:40:11;;;;;;;2.08;1.60;;;;;;;23.43;76.00;96316.94;5020765;28;24510;-72
2023/08/10 09:42:39;;;;;;;2.60;1.63;;;;;;;23.33;80.75;96317.13;5020306;28;24474;-72
2023/08/10 09:45:08;;;;;;;3.95;1.70;;;;;;;23.32;76.85;96306.69;5015486;28;25009;-72
2023/08/10 09:47:36;;;;;;;2.35;1.77;;;;;;;23.41;81.73;96301.25;5012027;28;24500;-72
2023/08/10 09:50:05;;;;;;;2.03;1.50;;;;;;;23.11;80.58;96300.06;5015348;28;24571;-72
2023/08/10 09:52:34;;;;;;;2.30;1.80;;;;;;;22.74;74.12;96308.31;5020279;28;24502;-72
2023/08/10 09:55:00;;;;;;;2.45;1.75;;;;;;;22.45;75.43;96300.75;5017861;28;24435;-72
2023/08/10 09:57:28;;;;;;;3.35;2.10;;;;;;;23.00;81.12;96300.34;5015182;28;24421;-72
2023/08/10 09:59:56;;;;;;;3.00;1.95;;;;;;;23.13;70.83;96307.81;5015786;28;24456;-72
2023/08/10 10:02:24;;;;;;;2.60;1.70;;;;;;;22.66;70.65;96309.09;5019036;28;24971;-72
2023/08/10 10:04:51;;;;;;;2.05;1.70;;;;;;;22.40;73.17;96295.94;5011619;28;24479;-72
2023/08/10 10:07:25;;;;;;;2.67;1.70;;;;;;;22.91;75.81;96295.97;5011712;28;24416;-72
2023/08/10 10:09:52;;;;;;;2.15;1.70;;;;;;;23.50;70.15;96286.22;5011311;28;24428;-72
2023/08/10 10:12:19;;;;;;;2.10;1.80;;;;;;;23.97;73.41;96292.72;5010931;28;24420;-72
2023/08/10 10:14:48;;;;;;;4.80;2.00;;;;;;;24.08;69.18;96290.56;5011713;28;24518;-73
2023/08/10 10:17:17;;;;;;;2.55;1.95;;;;;;;24.17;71.17;96294.00;5011642;28;24420;-72
2023/08/10 10:19:44;;;;;;;3.30;1.80;;;;;;;24.20;62.67;96287.56;5011398;28;24491;-73
2023/08/10 10:22:11;;;;;;;3.97;1.80;;;;;;;24.42;62.21;96288.72;5010889;28;24500;-72
2023/08/10 10:24:40;;;;;;;2.40;2.00;;;;;;;24.26;60.68;96289.53;5011152;28;24478;-72
2023/08/10 10:27:09;;;;;;;3.40;1.90;;;;;;;23.73;59.51;96285.59;5011301;28;24515;-72
2023/08/10 10:29:37;;;;;;;1.90;1.35;;;;;;;23.26;61.98;96286.22;5010961;28;24785;-72
2023/08/10 10:32:12;;;;;;;1.80;1.60;;;;;;;23.90;67.72;96281.97;5011035;28;24419;-72
2023/08/10 10:34:41;;;;;;;2.45;2.03;;;;;;;23.34;59.53;96276.47;5011274;28;24412;-72
2023/08/10 10:37:09;;;;;;;2.50;1.80;;;;;;;23.30;61.99;96275.16;5010933;28;24408;-72
2023/08/10 10:39:37;;;;;;;2.55;1.92;;;;;;;23.20;62.71;96277.09;5011095;28;24658;-72
2023/08/10 10:42:05;;;;;;;3.38;1.75;;;;;;;23.22;62.73;96269.84;5010218;28;24437;-71
2023/08/10 10:45:05;;;;;;;2.78;1.98;;;;;;;23.27;59.53;96266.72;5010831;28;24784;-72
2023/08/10 10:47:36;;;;;;;2.30;1.80;;;;;;;23.80;60.50;96266.25;5010687;28;24948;-72
2023/08/10 10:50:16;;;;;;;2.38;1.95;;;;;;;24.37;59.16;96265.38;5010885;28;24428;-72
2023/08/10 10:52:53;;;;;;;2.05;1.75;;;;;;;24.64;57.92;96256.19;5010860;28;24416;-72
2023/08/10 10:55:20;;;;;;;4.45;1.95;;;;;;;24.74;55.76;96256.81;5010764;28;24455;-72
2023/08/10 10:57:48;;;;;;;2.25;1.83;;;;;;;24.41;53.30;96253.47;5010834;28;24815;-72
2023/08/10 11:00:16;;;;;;;3.05;1.90;;;;;;;24.26;53.19;96250.66;5010606;28;24428;-72
2023/08/10 11:02:43;;;;;;;2.37;1.63;;;;;;;24.31;55.94;96252.78;5010974;28;24427;-72
2023/08/10 11:05:11;;;;;;;2.95;1.90;;;;;;;24.32;55.13;96255.25;5010784;28;24428;-72
2023/08/10 11:07:42;;;;;;;2.40;1.70;;;;;;;24.67;57.06;96239.97;5010672;28;24419;-72
2023/08/10 11:10:09;;;;;;;2.33;1.70;;;;;;;25.40;57.56;96245.84;5010301;28;24952;-73
2023/08/10 11:12:38;;;;;;;2.70;2.00;;;;;;;25.22;53.23;96241.69;5010321;28;24427;-72
2023/08/10 11:15:06;;;;;;;3.40;1.92;;;;;;;25.48;52.73;96240.50;5012631;28;24780;-73
2023/08/10 11:17:32;;;;;;;2.00;1.65;;;;;;;25.49;51.62;96236.84;5014739;28;24787;-72
2023/08/10 11:20:00;;;;;;;4.45;1.98;;;;;;;25.63;50.64;96237.91;5014709;28;24425;-73
2023/08/10 11:22:27;;;;;;;2.57;2.00;;;;;;;25.37;50.66;96236.44;5014398;28;24547;-72
2023/08/10 11:24:55;;;;;;;2.00;1.80;;;;;;;25.13;50.04;96233.94;5014376;28;25165;-72
2023/08/10 11:27:21;;;;;;;2.53;1.70;;;;;;;25.03;56.14;96224.38;5014377;28;25000;-72